sensor_id;sensor_type;location;lat;lon;timestamp;P1;durP1;ratioP1;P2;durP2;ratioP2
58384;SDS011;44185;47.844;8.966;2023-08-20T00:00:36;10.05;;;5.70;;
58384;SDS011;44185;47.844;8.966;2023-08-20T00:03:03;10.70;;;5.95;;
58384;SDS011;44185;47.844;8.966;2023-08-20T00:05:35;8.90;;;5.35;;
58384;SDS011;44185;47.844;8.966;2023-08-20T00:08:03;11.18;;;6.32;;
58384;SDS011;44185;47.844;8.966;2023-08-20T00:10:29;9.38;;;5.75;;
58384;SDS011;44185;47.844;8.966;2023-08-20T00:12:56;10.65;;;6.05;;
58384;SDS011;44185;47.844;8.966;2023-08-20T00:15:22;10.70;;;5.95;;
58384;SDS011;44185;47.844;8.966;2023-08-20T00:17:48;11.23;;;6.13;;
58384;SDS011;44185;47.844;8.966;2023-08-20T00:20:14;9.77;;;5.65;;
58384;SDS011;44185;47.844;8.966;2023-08-20T00:22:40;7.85;;;5.75;;
58384;SDS011;44185;47.844;8.966;2023-08-20T00:25:06;11.85;;;6.15;;
58384;SDS011;44185;47.844;8.966;2023-08-20T00:27:33;10.48;;;6.35;;
58384;SDS011;44185;47.844;8.966;2023-08-20T00:30:00;11.05;;;6.43;;
58384;SDS011;44185;47.844;8.966;2023-08-20T00:32:25;12.07;;;6.32;;
58384;SDS011;44185;47.844;8.966;2023-08-20T00:34:51;12.02;;;6.00;;
58384;SDS011;44185;47.844;8.966;2023-08-20T00:37:16;11.60;;;6.28;;
58384;SDS011;44185;47.844;8.966;2023-08-20T00:39:42;9.60;;;5.67;;
58384;SDS011;44185;47.844;8.966;2023-08-20T00:42:10;10.55;;;6.10;;
58384;SDS011;44185;47.844;8.966;2023-08-20T00:44:35;10.15;;;6.53;;
58384;SDS011;44185;47.844;8.966;2023-08-20T00:47:02;8.33;;;5.80;;
58384;SDS011;44185;47.844;8.966;2023-08-20T00:49:29;9.43;;;6.07;;
58384;SDS011;44185;47.844;8.966;2023-08-20T00:51:55;11.70;;;5.97;;
58384;SDS011;44185;47.844;8.966;2023-08-20T00:54:21;9.05;;;5.90;;
58384;SDS011;44185;47.844;8.966;2023-08-20T00:56:47;10.80;;;6.05;;
58384;SDS011;44185;47.844;8.966;2023-08-20T00:59:14;9.75;;;5.63;;
58384;SDS011;44185;47.844;8.966;2023-08-20T01:01:40;11.25;;;6.25;;
58384;SDS011;44185;47.844;8.966;2023-08-20T01:04:07;10.18;;;6.22;;
58384;SDS011;44185;47.844;8.966;2023-08-20T01:06:33;10.45;;;5.95;;
58384;SDS011;44185;47.844;8.966;2023-08-20T01:09:15;12.18;;;6.22;;
58384;SDS011;44185;47.844;8.966;2023-08-20T01:11:47;12.02;;;6.70;;
58384;SDS011;44185;47.844;8.966;2023-08-20T01:14:17;11.57;;;6.40;;
58384;SDS011;44185;47.844;8.966;2023-08-20T01:16:43;9.88;;;6.22;;
58384;SDS011;44185;47.844;8.966;2023-08-20T01:19:13;9.85;;;5.90;;
58384;SDS011;44185;47.844;8.966;2023-08-20T01:21:43;8.25;;;5.97;;
58384;SDS011;44185;47.844;8.966;2023-08-20T01:24:23;9.97;;;6.13;;
58384;SDS011;44185;47.844;8.966;2023-08-20T01:27:02;8.27;;;6.03;;
58384;SDS011;44185;47.844;8.966;2023-08-20T01:29:39;12.73;;;6.35;;
58384;SDS011;44185;47.844;8.966;2023-08-20T01:32:05;12.18;;;6.32;;
58384;SDS011;44185;47.844;8.966;2023-08-20T01:34:31;12.02;;;6.05;;
58384;SDS011;44185;47.844;8.966;2023-08-20T01:36:56;9.10;;;5.75;;
58384;SDS011;44185;47.844;8.966;2023-08-20T01:39:22;10.90;;;6.13;;
58384;SDS011;44185;47.844;8.966;2023-08-20T01:41:47;10.00;;;6.10;;
58384;SDS011;44185;47.844;8.966;2023-08-20T01:44:13;8.98;;;5.45;;
58384;SDS011;44185;47.844;8.966;2023-08-20T01:46:40;8.93;;;6.00;;
58384;SDS011;44185;47.844;8.966;2023-08-20T01:49:05;10.73;;;6.25;;
58384;SDS011;44185;47.844;8.966;2023-08-20T01:51:31;10.80;;;5.88;;
58384;SDS011;44185;47.844;8.966;2023-08-20T01:53:56;9.65;;;6.30;;
58384;SDS011;44185;47.844;8.966;2023-08-20T01:56:21;8.77;;;6.05;;
58384;SDS011;44185;47.844;8.966;2023-08-20T01:58:47;9.70;;;6.43;;
58384;SDS011;44185;47.844;8.966;2023-08-20T02:01:13;9.48;;;5.90;;
58384;SDS011;44185;47.844;8.966;2023-08-20T02:03:40;9.13;;;6.13;;
58384;SDS011;44185;47.844;8.966;2023-08-20T02:06:05;11.80;;;6.30;;
58384;SDS011;44185;47.844;8.966;2023-08-20T02:08:30;10.13;;;5.82;;
58384;SDS011;44185;47.844;8.966;2023-08-20T02:11:01;11.05;;;5.93;;
58384;SDS011;44185;47.844;8.966;2023-08-20T02:13:28;11.77;;;6.07;;
58384;SDS011;44185;47.844;8.966;2023-08-20T02:15:57;11.10;;;6.40;;
58384;SDS011;44185;47.844;8.966;2023-08-20T02:20:50;11.45;;;6.10;;
58384;SDS011;44185;47.844;8.966;2023-08-20T02:23:15;10.15;;;6.22;;
58384;SDS011;44185;47.844;8.966;2023-08-20T02:25:41;10.48;;;6.10;;
58384;SDS011;44185;47.844;8.966;2023-08-20T02:28:06;12.55;;;6.43;;
58384;SDS011;44185;47.844;8.966;2023-08-20T02:30:31;12.57;;;6.03;;
58384;SDS011;44185;47.844;8.966;2023-08-20T02:32:57;8.63;;;5.88;;
58384;SDS011;44185;47.844;8.966;2023-08-20T02:35:22;9.95;;;6.32;;
58384;SDS011;44185;47.844;8.966;2023-08-20T02:37:49;9.70;;;5.70;;
58384;SDS011;44185;47.844;8.966;2023-08-20T02:40:15;10.15;;;5.90;;
58384;SDS011;44185;47.844;8.966;2023-08-20T02:42:40;12.82;;;5.82;;
58384;SDS011;44185;47.844;8.966;2023-08-20T02:45:06;9.60;;;6.00;;
58384;SDS011;44185;47.844;8.966;2023-08-20T02:47:32;13.43;;;6.10;;
58384;SDS011;44185;47.844;8.966;2023-08-20T02:49:58;11.50;;;6.40;;
58384;SDS011;44185;47.844;8.966;2023-08-20T02:52:23;11.80;;;6.15;;
58384;SDS011;44185;47.844;8.966;2023-08-20T02:54:50;11.32;;;6.47;;
58384;SDS011;44185;47.844;8.966;2023-08-20T02:57:16;11.32;;;6.07;;
58384;SDS011;44185;47.844;8.966;2023-08-20T02:59:41;12.02;;;6.38;;
58384;SDS011;44185;47.844;8.966;2023-08-20T03:02:06;10.23;;;6.00;;
58384;SDS011;44185;47.844;8.966;2023-08-20T03:04:32;9.95;;;6.78;;
58384;SDS011;44185;47.844;8.966;2023-08-20T03:06:58;12.80;;;6.85;;
58384;SDS011;44185;47.844;8.966;2023-08-20T03:09:23;9.02;;;6.10;;
58384;SDS011;44185;47.844;8.966;2023-08-20T03:11:50;9.40;;;6.40;;
58384;SDS011;44185;47.844;8.966;2023-08-20T03:14:16;11.68;;;6.05;;
58384;SDS011;44185;47.844;8.966;2023-08-20T03:16:41;10.75;;;6.15;;
58384;SDS011;44185;47.844;8.966;2023-08-20T03:19:06;10.75;;;6.30;;
58384;SDS011;44185;47.844;8.966;2023-08-20T03:21:34;11.18;;;6.50;;
58384;SDS011;44185;47.844;8.966;2023-08-20T03:24:00;12.57;;;6.70;;
58384;SDS011;44185;47.844;8.966;2023-08-20T03:26:25;11.18;;;6.50;;
58384;SDS011;44185;47.844;8.966;2023-08-20T03:28:52;10.38;;;6.35;;
58384;SDS011;44185;47.844;8.966;2023-08-20T03:31:18;12.85;;;6.45;;
58384;SDS011;44185;47.844;8.966;2023-08-20T03:33:43;11.32;;;6.63;;
58384;SDS011;44185;47.844;8.966;2023-08-20T03:36:08;11.88;;;6.50;;
58384;SDS011;44185;47.844;8.966;2023-08-20T03:38:34;10.57;;;6.63;;
58384;SDS011;44185;47.844;8.966;2023-08-20T03:40:59;11.30;;;6.30;;
58384;SDS011;44185;47.844;8.966;2023-08-20T03:43:25;10.35;;;6.07;;
58384;SDS011;44185;47.844;8.966;2023-08-20T03:45:53;11.85;;;6.03;;
58384;SDS011;44185;47.844;8.966;2023-08-20T03:48:18;11.18;;;6.15;;
58384;SDS011;44185;47.844;8.966;2023-08-20T03:50:44;10.85;;;6.53;;
58384;SDS011;44185;47.844;8.966;2023-08-20T03:53:09;11.05;;;6.38;;
58384;SDS011;44185;47.844;8.966;2023-08-20T03:55:35;10.85;;;6.05;;
58384;SDS011;44185;47.844;8.966;2023-08-20T03:58:00;11.55;;;6.60;;
58384;SDS011;44185;47.844;8.966;2023-08-20T04:00:26;12.05;;;6.55;;
58384;SDS011;44185;47.844;8.966;2023-08-20T04:02:52;12.32;;;6.28;;
58384;SDS011;44185;47.844;8.966;2023-08-20T04:05:18;13.40;;;6.65;;
58384;SDS011;44185;47.844;8.966;2023-08-20T04:07:43;10.93;;;6.18;;
58384;SDS011;44185;47.844;8.966;2023-08-20T04:10:09;10.95;;;6.40;;
58384;SDS011;44185;47.844;8.966;2023-08-20T04:12:34;12.27;;;6.82;;
58384;SDS011;44185;47.844;8.966;2023-08-20T04:15:02;9.23;;;6.10;;
58384;SDS011;44185;47.844;8.966;2023-08-20T04:17:28;12.73;;;6.68;;
58384;SDS011;44185;47.844;8.966;2023-08-20T04:19:54;12.02;;;6.30;;
58384;SDS011;44185;47.844;8.966;2023-08-20T04:22:20;10.02;;;6.47;;
58384;SDS011;44185;47.844;8.966;2023-08-20T04:24:46;11.20;;;6.40;;
58384;SDS011;44185;47.844;8.966;2023-08-20T04:27:11;10.57;;;6.28;;
58384;SDS011;44185;47.844;8.966;2023-08-20T04:29:36;10.63;;;6.22;;
58384;SDS011;44185;47.844;8.966;2023-08-20T04:32:02;8.93;;;6.35;;
58384;SDS011;44185;47.844;8.966;2023-08-20T04:34:28;11.20;;;6.55;;
58384;SDS011;44185;47.844;8.966;2023-08-20T04:36:55;10.93;;;6.20;;
58384;SDS011;44185;47.844;8.966;2023-08-20T04:39:20;9.48;;;5.97;;
58384;SDS011;44185;47.844;8.966;2023-08-20T04:41:45;11.90;;;7.05;;
58384;SDS011;44185;47.844;8.966;2023-08-20T04:44:11;10.05;;;6.38;;
58384;SDS011;44185;47.844;8.966;2023-08-20T04:46:36;11.20;;;6.82;;
58384;SDS011;44185;47.844;8.966;2023-08-20T04:49:02;10.82;;;5.88;;
58384;SDS011;44185;47.844;8.966;2023-08-20T04:51:28;11.48;;;6.55;;
58384;SDS011;44185;47.844;8.966;2023-08-20T04:53:55;11.10;;;6.50;;
58384;SDS011;44185;47.844;8.966;2023-08-20T04:56:20;9.68;;;6.30;;
58384;SDS011;44185;47.844;8.966;2023-08-20T04:58:46;12.38;;;6.47;;
58384;SDS011;44185;47.844;8.966;2023-08-20T05:01:11;11.43;;;6.25;;
58384;SDS011;44185;47.844;8.966;2023-08-20T05:03:37;10.77;;;6.50;;
58384;SDS011;44185;47.844;8.966;2023-08-20T05:06:02;10.73;;;6.70;;
58384;SDS011;44185;47.844;8.966;2023-08-20T05:08:28;11.63;;;6.57;;
58384;SDS011;44185;47.844;8.966;2023-08-20T05:10:55;12.13;;;6.57;;
58384;SDS011;44185;47.844;8.966;2023-08-20T05:13:20;11.63;;;6.82;;
58384;SDS011;44185;47.844;8.966;2023-08-20T05:15:50;13.50;;;6.78;;
58384;SDS011;44185;47.844;8.966;2023-08-20T05:18:16;10.50;;;6.55;;
58384;SDS011;44185;47.844;8.966;2023-08-20T05:20:41;13.50;;;7.20;;
58384;SDS011;44185;47.844;8.966;2023-08-20T05:23:07;11.05;;;6.40;;
58384;SDS011;44185;47.844;8.966;2023-08-20T05:25:35;12.23;;;7.10;;
58384;SDS011;44185;47.844;8.966;2023-08-20T05:28:02;13.48;;;6.32;;
58384;SDS011;44185;47.844;8.966;2023-08-20T05:30:28;11.65;;;6.72;;
58384;SDS011;44185;47.844;8.966;2023-08-20T05:32:53;9.60;;;6.28;;
58384;SDS011;44185;47.844;8.966;2023-08-20T05:35:19;11.65;;;6.90;;
58384;SDS011;44185;47.844;8.966;2023-08-20T05:37:44;10.20;;;6.35;;
58384;SDS011;44185;47.844;8.966;2023-08-20T05:40:13;11.85;;;7.15;;
58384;SDS011;44185;47.844;8.966;2023-08-20T05:42:38;14.87;;;7.37;;
58384;SDS011;44185;47.844;8.966;2023-08-20T05:45:06;13.95;;;7.80;;
58384;SDS011;44185;47.844;8.966;2023-08-20T05:47:32;15.93;;;8.73;;
58384;SDS011;44185;47.844;8.966;2023-08-20T05:49:58;16.90;;;9.00;;
58384;SDS011;44185;47.844;8.966;2023-08-20T05:52:23;19.35;;;9.77;;
58384;SDS011;44185;47.844;8.966;2023-08-20T05:54:49;17.33;;;9.15;;
58384;SDS011;44185;47.844;8.966;2023-08-20T05:57:14;18.02;;;9.68;;
58384;SDS011;44185;47.844;8.966;2023-08-20T05:59:43;14.77;;;8.40;;
58384;SDS011;44185;47.844;8.966;2023-08-20T06:02:10;18.67;;;9.52;;
58384;SDS011;44185;47.844;8.966;2023-08-20T06:04:40;18.33;;;9.02;;
58384;SDS011;44185;47.844;8.966;2023-08-20T06:07:06;14.27;;;8.47;;
58384;SDS011;44185;47.844;8.966;2023-08-20T06:09:31;15.82;;;8.68;;
58384;SDS011;44185;47.844;8.966;2023-08-20T06:12:00;13.57;;;7.63;;
58384;SDS011;44185;47.844;8.966;2023-08-20T06:14:25;12.18;;;7.20;;
58384;SDS011;44185;47.844;8.966;2023-08-20T06:16:51;16.52;;;8.93;;
58384;SDS011;44185;47.844;8.966;2023-08-20T06:19:17;15.70;;;8.97;;
58384;SDS011;44185;47.844;8.966;2023-08-20T06:21:43;18.35;;;8.15;;
58384;SDS011;44185;47.844;8.966;2023-08-20T06:24:08;13.18;;;7.75;;
58384;SDS011;44185;47.844;8.966;2023-08-20T06:26:34;12.85;;;8.18;;
58384;SDS011;44185;47.844;8.966;2023-08-20T06:28:59;15.18;;;8.65;;
58384;SDS011;44185;47.844;8.966;2023-08-20T06:31:24;16.83;;;10.10;;
58384;SDS011;44185;47.844;8.966;2023-08-20T06:33:50;16.45;;;9.27;;
58384;SDS011;44185;47.844;8.966;2023-08-20T06:36:17;17.38;;;9.68;;
58384;SDS011;44185;47.844;8.966;2023-08-20T06:38:43;15.27;;;8.98;;
58384;SDS011;44185;47.844;8.966;2023-08-20T06:41:08;15.98;;;10.18;;
58384;SDS011;44185;47.844;8.966;2023-08-20T06:43:34;20.40;;;14.02;;
58384;SDS011;44185;47.844;8.966;2023-08-20T06:45:59;17.77;;;11.45;;
58384;SDS011;44185;47.844;8.966;2023-08-20T06:48:24;15.40;;;10.23;;
58384;SDS011;44185;47.844;8.966;2023-08-20T06:50:50;20.42;;;12.45;;
58384;SDS011;44185;47.844;8.966;2023-08-20T06:53:17;19.73;;;13.55;;
58384;SDS011;44185;47.844;8.966;2023-08-20T06:55:43;19.65;;;14.18;;
58384;SDS011;44185;47.844;8.966;2023-08-20T06:58:08;21.20;;;15.45;;
58384;SDS011;44185;47.844;8.966;2023-08-20T07:00:34;23.40;;;16.10;;
58384;SDS011;44185;47.844;8.966;2023-08-20T07:02:59;21.23;;;14.93;;
58384;SDS011;44185;47.844;8.966;2023-08-20T07:05:24;20.08;;;13.43;;
58384;SDS011;44185;47.844;8.966;2023-08-20T07:07:50;19.15;;;12.13;;
58384;SDS011;44185;47.844;8.966;2023-08-20T07:10:17;19.20;;;12.85;;
58384;SDS011;44185;47.844;8.966;2023-08-20T07:12:43;18.27;;;10.60;;
58384;SDS011;44185;47.844;8.966;2023-08-20T07:15:08;16.52;;;9.52;;
58384;SDS011;44185;47.844;8.966;2023-08-20T07:17:34;16.60;;;8.50;;
58384;SDS011;44185;47.844;8.966;2023-08-20T07:19:59;14.07;;;8.45;;
58384;SDS011;44185;47.844;8.966;2023-08-20T07:22:25;13.25;;;7.70;;
58384;SDS011;44185;47.844;8.966;2023-08-20T07:24:50;12.32;;;7.85;;
58384;SDS011;44185;47.844;8.966;2023-08-20T07:27:17;13.13;;;7.87;;
58384;SDS011;44185;47.844;8.966;2023-08-20T07:29:43;13.52;;;8.90;;
58384;SDS011;44185;47.844;8.966;2023-08-20T07:32:08;12.57;;;7.93;;
58384;SDS011;44185;47.844;8.966;2023-08-20T07:34:34;13.37;;;9.00;;
58384;SDS011;44185;47.844;8.966;2023-08-20T07:36:59;12.80;;;7.97;;
58384;SDS011;44185;47.844;8.966;2023-08-20T07:39:25;14.73;;;7.25;;
58384;SDS011;44185;47.844;8.966;2023-08-20T07:41:50;12.40;;;8.15;;
58384;SDS011;44185;47.844;8.966;2023-08-20T07:44:17;13.53;;;7.87;;
58384;SDS011;44185;47.844;8.966;2023-08-20T07:46:43;12.95;;;7.57;;
58384;SDS011;44185;47.844;8.966;2023-08-20T07:49:08;15.00;;;7.88;;
58384;SDS011;44185;47.844;8.966;2023-08-20T07:51:34;11.35;;;7.47;;
58384;SDS011;44185;47.844;8.966;2023-08-20T07:53:59;11.25;;;7.78;;
58384;SDS011;44185;47.844;8.966;2023-08-20T07:56:24;14.85;;;8.10;;
58384;SDS011;44185;47.844;8.966;2023-08-20T07:58:50;14.68;;;8.02;;
58384;SDS011;44185;47.844;8.966;2023-08-20T08:01:17;14.45;;;8.30;;
58384;SDS011;44185;47.844;8.966;2023-08-20T08:03:43;15.27;;;8.88;;
58384;SDS011;44185;47.844;8.966;2023-08-20T08:06:08;13.98;;;8.68;;
58384;SDS011;44185;47.844;8.966;2023-08-20T08:08:34;12.68;;;8.90;;
58384;SDS011;44185;47.844;8.966;2023-08-20T08:10:59;15.07;;;8.80;;
58384;SDS011;44185;47.844;8.966;2023-08-20T08:13:25;12.70;;;8.52;;
58384;SDS011;44185;47.844;8.966;2023-08-20T08:15:50;13.75;;;8.55;;
58384;SDS011;44185;47.844;8.966;2023-08-20T08:18:17;13.40;;;7.80;;
58384;SDS011;44185;47.844;8.966;2023-08-20T08:20:43;13.57;;;7.88;;
58384;SDS011;44185;47.844;8.966;2023-08-20T08:23:08;12.85;;;7.65;;
58384;SDS011;44185;47.844;8.966;2023-08-20T08:25:34;13.00;;;7.75;;
58384;SDS011;44185;47.844;8.966;2023-08-20T08:27:59;13.23;;;7.43;;
58384;SDS011;44185;47.844;8.966;2023-08-20T08:30:24;12.43;;;7.25;;
58384;SDS011;44185;47.844;8.966;2023-08-20T08:32:50;13.02;;;8.18;;
58384;SDS011;44185;47.844;8.966;2023-08-20T08:35:18;13.55;;;7.75;;
58384;SDS011;44185;47.844;8.966;2023-08-20T08:37:44;13.30;;;7.53;;
58384;SDS011;44185;47.844;8.966;2023-08-20T08:40:10;11.32;;;6.97;;
58384;SDS011;44185;47.844;8.966;2023-08-20T08:42:36;13.75;;;7.20;;
58384;SDS011;44185;47.844;8.966;2023-08-20T08:45:01;11.57;;;7.38;;
58384;SDS011;44185;47.844;8.966;2023-08-20T08:47:28;16.70;;;8.43;;
58384;SDS011;44185;47.844;8.966;2023-08-20T08:49:54;15.25;;;8.45;;
58384;SDS011;44185;47.844;8.966;2023-08-20T08:52:22;14.85;;;8.85;;
58384;SDS011;44185;47.844;8.966;2023-08-20T08:54:48;18.23;;;9.63;;
58384;SDS011;44185;47.844;8.966;2023-08-20T08:57:14;16.67;;;9.52;;
58384;SDS011;44185;47.844;8.966;2023-08-20T08:59:39;12.73;;;8.02;;
58384;SDS011;44185;47.844;8.966;2023-08-20T09:02:07;14.88;;;8.50;;
58384;SDS011;44185;47.844;8.966;2023-08-20T09:04:33;15.53;;;8.47;;
58384;SDS011;44185;47.844;8.966;2023-08-20T09:06:59;13.55;;;8.13;;
58384;SDS011;44185;47.844;8.966;2023-08-20T09:09:26;16.45;;;8.02;;
58384;SDS011;44185;47.844;8.966;2023-08-20T09:11:55;13.80;;;7.85;;
58384;SDS011;44185;47.844;8.966;2023-08-20T09:14:20;14.43;;;8.60;;
58384;SDS011;44185;47.844;8.966;2023-08-20T09:16:46;13.13;;;8.18;;
58384;SDS011;44185;47.844;8.966;2023-08-20T09:19:12;12.60;;;8.07;;
58384;SDS011;44185;47.844;8.966;2023-08-20T09:21:37;12.20;;;8.05;;
58384;SDS011;44185;47.844;8.966;2023-08-20T09:24:03;14.75;;;8.77;;
58384;SDS011;44185;47.844;8.966;2023-08-20T09:26:30;14.25;;;8.48;;
58384;SDS011;44185;47.844;8.966;2023-08-20T09:28:55;13.02;;;7.90;;
58384;SDS011;44185;47.844;8.966;2023-08-20T09:31:21;13.82;;;8.30;;
58384;SDS011;44185;47.844;8.966;2023-08-20T09:34:02;13.20;;;8.00;;
58384;SDS011;44185;47.844;8.966;2023-08-20T09:36:31;11.45;;;7.57;;
58384;SDS011;44185;47.844;8.966;2023-08-20T09:38:58;13.00;;;7.78;;
58384;SDS011;44185;47.844;8.966;2023-08-20T09:41:23;10.45;;;7.25;;
58384;SDS011;44185;47.844;8.966;2023-08-20T09:43:52;13.43;;;7.40;;
58384;SDS011;44185;47.844;8.966;2023-08-20T09:46:21;12.82;;;7.82;;
58384;SDS011;44185;47.844;8.966;2023-08-20T09:48:49;13.90;;;8.00;;
58384;SDS011;44185;47.844;8.966;2023-08-20T09:51:17;12.18;;;7.13;;
58384;SDS011;44185;47.844;8.966;2023-08-20T09:53:51;11.90;;;7.10;;
58384;SDS011;44185;47.844;8.966;2023-08-20T09:56:23;11.60;;;7.07;;
58384;SDS011;44185;47.844;8.966;2023-08-20T09:58:53;11.20;;;7.10;;
58384;SDS011;44185;47.844;8.966;2023-08-20T10:01:19;14.30;;;6.50;;
58384;SDS011;44185;47.844;8.966;2023-08-20T10:03:45;10.37;;;6.90;;
58384;SDS011;44185;47.844;8.966;2023-08-20T10:06:10;10.40;;;7.05;;
58384;SDS011;44185;47.844;8.966;2023-08-20T10:08:36;10.98;;;7.03;;
58384;SDS011;44185;47.844;8.966;2023-08-20T10:11:03;10.38;;;6.60;;
58384;SDS011;44185;47.844;8.966;2023-08-20T10:13:28;10.63;;;6.65;;
58384;SDS011;44185;47.844;8.966;2023-08-20T10:15:55;11.20;;;6.97;;
58384;SDS011;44185;47.844;8.966;2023-08-20T10:18:21;11.13;;;6.97;;
58384;SDS011;44185;47.844;8.966;2023-08-20T10:20:47;10.80;;;6.88;;
58384;SDS011;44185;47.844;8.966;2023-08-20T10:23:14;9.48;;;6.30;;
58384;SDS011;44185;47.844;8.966;2023-08-20T10:25:40;12.23;;;6.60;;
58384;SDS011;44185;47.844;8.966;2023-08-20T10:28:20;11.02;;;6.80;;
58384;SDS011;44185;47.844;8.966;2023-08-20T10:33:35;10.67;;;6.87;;
58384;SDS011;44185;47.844;8.966;2023-08-20T10:36:08;12.85;;;6.47;;
58384;SDS011;44185;47.844;8.966;2023-08-20T10:38:35;9.95;;;6.35;;
58384;SDS011;44185;47.844;8.966;2023-08-20T10:41:01;12.60;;;7.10;;
58384;SDS011;44185;47.844;8.966;2023-08-20T10:43:31;12.40;;;6.78;;
58384;SDS011;44185;47.844;8.966;2023-08-20T10:46:04;9.27;;;6.55;;
58384;SDS011;44185;47.844;8.966;2023-08-20T10:48:33;10.75;;;6.65;;
58384;SDS011;44185;47.844;8.966;2023-08-20T10:51:05;10.27;;;6.65;;
58384;SDS011;44185;47.844;8.966;2023-08-20T10:53:34;10.55;;;6.88;;
58384;SDS011;44185;47.844;8.966;2023-08-20T10:56:07;9.75;;;6.22;;
58384;SDS011;44185;47.844;8.966;2023-08-20T10:58:33;11.20;;;6.45;;
58384;SDS011;44185;47.844;8.966;2023-08-20T11:03:47;10.15;;;6.10;;
58384;SDS011;44185;47.844;8.966;2023-08-20T11:06:14;9.70;;;6.13;;
58384;SDS011;44185;47.844;8.966;2023-08-20T11:08:40;11.17;;;6.27;;
58384;SDS011;44185;47.844;8.966;2023-08-20T11:11:07;8.82;;;6.10;;
58384;SDS011;44185;47.844;8.966;2023-08-20T11:13:32;9.70;;;6.40;;
58384;SDS011;44185;47.844;8.966;2023-08-20T11:15:59;10.93;;;6.00;;
58384;SDS011;44185;47.844;8.966;2023-08-20T11:18:25;10.98;;;6.20;;
58384;SDS011;44185;47.844;8.966;2023-08-20T11:20:52;10.73;;;6.00;;
58384;SDS011;44185;47.844;8.966;2023-08-20T11:23:18;9.07;;;5.65;;
58384;SDS011;44185;47.844;8.966;2023-08-20T11:25:44;9.83;;;5.30;;
58384;SDS011;44185;47.844;8.966;2023-08-20T11:28:09;7.00;;;4.80;;
58384;SDS011;44185;47.844;8.966;2023-08-20T11:30:35;8.07;;;4.90;;
58384;SDS011;44185;47.844;8.966;2023-08-20T11:33:00;11.65;;;5.05;;
58384;SDS011;44185;47.844;8.966;2023-08-20T11:35:26;6.30;;;4.32;;
58384;SDS011;44185;47.844;8.966;2023-08-20T11:37:53;8.02;;;4.05;;
58384;SDS011;44185;47.844;8.966;2023-08-20T11:40:20;7.10;;;4.63;;
58384;SDS011;44185;47.844;8.966;2023-08-20T11:42:45;7.20;;;4.32;;
58384;SDS011;44185;47.844;8.966;2023-08-20T11:45:11;8.30;;;4.65;;
58384;SDS011;44185;47.844;8.966;2023-08-20T11:47:38;8.80;;;4.85;;
58384;SDS011;44185;47.844;8.966;2023-08-20T11:50:04;7.30;;;4.65;;
58384;SDS011;44185;47.844;8.966;2023-08-20T11:52:31;6.05;;;4.53;;
58384;SDS011;44185;47.844;8.966;2023-08-20T11:54:58;9.75;;;5.22;;
58384;SDS011;44185;47.844;8.966;2023-08-20T11:57:23;5.45;;;4.53;;
58384;SDS011;44185;47.844;8.966;2023-08-20T11:59:49;7.70;;;5.30;;
58384;SDS011;44185;47.844;8.966;2023-08-20T12:02:14;8.00;;;5.72;;
58384;SDS011;44185;47.844;8.966;2023-08-20T12:04:40;10.85;;;5.30;;
58384;SDS011;44185;47.844;8.966;2023-08-20T12:07:07;14.05;;;6.15;;
58384;SDS011;44185;47.844;8.966;2023-08-20T12:09:34;10.10;;;5.40;;
58384;SDS011;44185;47.844;8.966;2023-08-20T12:12:01;9.95;;;5.63;;
58384;SDS011;44185;47.844;8.966;2023-08-20T12:14:28;6.88;;;4.90;;
58384;SDS011;44185;47.844;8.966;2023-08-20T12:16:54;10.33;;;5.03;;
58384;SDS011;44185;47.844;8.966;2023-08-20T12:19:20;8.50;;;4.82;;
58384;SDS011;44185;47.844;8.966;2023-08-20T12:21:45;8.32;;;4.40;;
58384;SDS011;44185;47.844;8.966;2023-08-20T12:24:11;7.80;;;4.28;;
58384;SDS011;44185;47.844;8.966;2023-08-20T12:26:37;7.15;;;4.15;;
58384;SDS011;44185;47.844;8.966;2023-08-20T12:29:04;6.10;;;3.63;;
58384;SDS011;44185;47.844;8.966;2023-08-20T12:31:30;6.28;;;3.97;;
58384;SDS011;44185;47.844;8.966;2023-08-20T12:33:56;7.20;;;4.50;;
58384;SDS011;44185;47.844;8.966;2023-08-20T12:36:21;10.48;;;4.80;;
58384;SDS011;44185;47.844;8.966;2023-08-20T12:38:47;9.15;;;4.88;;
58384;SDS011;44185;47.844;8.966;2023-08-20T12:41:13;8.30;;;5.45;;
58384;SDS011;44185;47.844;8.966;2023-08-20T12:43:38;8.85;;;4.90;;
58384;SDS011;44185;47.844;8.966;2023-08-20T12:46:05;9.00;;;5.47;;
58384;SDS011;44185;47.844;8.966;2023-08-20T12:48:30;8.40;;;5.32;;
58384;SDS011;44185;47.844;8.966;2023-08-20T12:50:56;11.90;;;5.45;;
58384;SDS011;44185;47.844;8.966;2023-08-20T12:53:22;11.55;;;5.40;;
58384;SDS011;44185;47.844;8.966;2023-08-20T12:55:47;10.80;;;5.50;;
58384;SDS011;44185;47.844;8.966;2023-08-20T12:58:13;11.02;;;6.25;;
58384;SDS011;44185;47.844;8.966;2023-08-20T13:00:38;8.13;;;5.50;;
58384;SDS011;44185;47.844;8.966;2023-08-20T13:03:06;7.88;;;5.25;;
58384;SDS011;44185;47.844;8.966;2023-08-20T13:05:32;9.77;;;5.57;;
58384;SDS011;44185;47.844;8.966;2023-08-20T13:07:58;6.90;;;4.60;;
58384;SDS011;44185;47.844;8.966;2023-08-20T13:10:24;11.75;;;5.32;;
58384;SDS011;44185;47.844;8.966;2023-08-20T13:12:51;8.43;;;5.35;;
58384;SDS011;44185;47.844;8.966;2023-08-20T13:15:18;7.18;;;4.85;;
58384;SDS011;44185;47.844;8.966;2023-08-20T13:17:45;10.18;;;5.25;;
58384;SDS011;44185;47.844;8.966;2023-08-20T13:20:13;9.02;;;4.70;;
58384;SDS011;44185;47.844;8.966;2023-08-20T13:22:39;6.40;;;4.43;;
58384;SDS011;44185;47.844;8.966;2023-08-20T13:25:05;12.18;;;4.57;;
58384;SDS011;44185;47.844;8.966;2023-08-20T13:27:31;8.15;;;4.25;;
58384;SDS011;44185;47.844;8.966;2023-08-20T13:29:56;7.43;;;4.20;;
58384;SDS011;44185;47.844;8.966;2023-08-20T13:32:22;5.63;;;3.95;;
58384;SDS011;44185;47.844;8.966;2023-08-20T13:34:48;6.53;;;4.20;;
58384;SDS011;44185;47.844;8.966;2023-08-20T13:37:15;8.75;;;3.78;;
58384;SDS011;44185;47.844;8.966;2023-08-20T13:39:41;8.38;;;3.80;;
58384;SDS011;44185;47.844;8.966;2023-08-20T13:42:06;9.90;;;3.80;;
58384;SDS011;44185;47.844;8.966;2023-08-20T13:44:32;8.60;;;4.50;;
58384;SDS011;44185;47.844;8.966;2023-08-20T13:46:58;6.45;;;4.15;;
58384;SDS011;44185;47.844;8.966;2023-08-20T13:49:24;5.57;;;4.53;;
58384;SDS011;44185;47.844;8.966;2023-08-20T13:51:49;8.07;;;4.50;;
58384;SDS011;44185;47.844;8.966;2023-08-20T13:54:16;7.80;;;4.47;;
58384;SDS011;44185;47.844;8.966;2023-08-20T13:56:42;9.00;;;4.90;;
58384;SDS011;44185;47.844;8.966;2023-08-20T13:59:08;8.60;;;4.82;;
58384;SDS011;44185;47.844;8.966;2023-08-20T14:01:34;5.50;;;3.97;;
58384;SDS011;44185;47.844;8.966;2023-08-20T14:03:59;10.73;;;4.28;;
58384;SDS011;44185;47.844;8.966;2023-08-20T14:06:25;5.35;;;4.00;;
58384;SDS011;44185;47.844;8.966;2023-08-20T14:08:50;10.68;;;4.40;;
58384;SDS011;44185;47.844;8.966;2023-08-20T14:11:17;8.23;;;4.13;;
58384;SDS011;44185;47.844;8.966;2023-08-20T14:13:43;4.90;;;3.67;;
58384;SDS011;44185;47.844;8.966;2023-08-20T14:16:08;6.18;;;3.88;;
58384;SDS011;44185;47.844;8.966;2023-08-20T14:18:34;8.25;;;4.20;;
58384;SDS011;44185;47.844;8.966;2023-08-20T14:20:59;6.93;;;3.90;;
58384;SDS011;44185;47.844;8.966;2023-08-20T14:23:25;10.13;;;4.20;;
58384;SDS011;44185;47.844;8.966;2023-08-20T14:25:50;9.75;;;4.75;;
58384;SDS011;44185;47.844;8.966;2023-08-20T14:28:17;9.27;;;4.25;;
58384;SDS011;44185;47.844;8.966;2023-08-20T14:30:43;8.70;;;4.32;;
58384;SDS011;44185;47.844;8.966;2023-08-20T14:33:08;10.57;;;4.47;;
58384;SDS011;44185;47.844;8.966;2023-08-20T14:35:34;6.97;;;3.97;;
58384;SDS011;44185;47.844;8.966;2023-08-20T14:37:59;7.30;;;4.30;;
58384;SDS011;44185;47.844;8.966;2023-08-20T14:40:24;8.75;;;4.60;;